sensor_id;sensor_type;location;lat;lon;timestamp;P1;durP1;ratioP1;P2;durP2;ratioP2
63259;SDS011;49390;51.380;0.098;2023-04-06T00:02:20;17.67;;;9.20;;
63259;SDS011;49390;51.380;0.098;2023-04-06T00:04:48;15.98;;;8.02;;
63259;SDS011;49390;51.380;0.098;2023-04-06T00:07:16;16.60;;;8.80;;
63259;SDS011;49390;51.380;0.098;2023-04-06T00:09:44;15.85;;;7.97;;
63259;SDS011;49390;51.380;0.098;2023-04-06T00:12:12;17.00;;;8.57;;
63259;SDS011;49390;51.380;0.098;2023-04-06T00:14:40;18.60;;;9.35;;
63259;SDS011;49390;51.380;0.098;2023-04-06T00:17:08;14.52;;;7.85;;
63259;SDS011;49390;51.380;0.098;2023-04-06T00:19:36;18.02;;;8.85;;
63259;SDS011;49390;51.380;0.098;2023-04-06T00:22:04;14.90;;;8.13;;
63259;SDS011;49390;51.380;0.098;2023-04-06T00:24:32;14.77;;;7.95;;
63259;SDS011;49390;51.380;0.098;2023-04-06T00:27:00;15.30;;;8.32;;
63259;SDS011;49390;51.380;0.098;2023-04-06T00:29:28;14.48;;;8.15;;
63259;SDS011;49390;51.380;0.098;2023-04-06T00:31:56;13.73;;;7.82;;
63259;SDS011;49390;51.380;0.098;2023-04-06T00:34:24;14.52;;;7.45;;
63259;SDS011;49390;51.380;0.098;2023-04-06T00:36:52;12.82;;;6.85;;
63259;SDS011;49390;51.380;0.098;2023-04-06T00:39:20;12.35;;;6.40;;
63259;SDS011;49390;51.380;0.098;2023-04-06T00:41:51;11.73;;;7.22;;
63259;SDS011;49390;51.380;0.098;2023-04-06T00:44:23;12.10;;;6.63;;
63259;SDS011;49390;51.380;0.098;2023-04-06T00:46:53;9.68;;;5.68;;
63259;SDS011;49390;51.380;0.098;2023-04-06T00:49:21;10.82;;;5.63;;
63259;SDS011;49390;51.380;0.098;2023-04-06T00:51:49;9.57;;;5.13;;
63259;SDS011;49390;51.380;0.098;2023-04-06T00:54:17;8.63;;;4.75;;
63259;SDS011;49390;51.380;0.098;2023-04-06T00:56:48;7.60;;;4.80;;
63259;SDS011;49390;51.380;0.098;2023-04-06T00:59:18;8.93;;;4.60;;
63259;SDS011;49390;51.380;0.098;2023-04-06T01:01:47;8.32;;;4.60;;
63259;SDS011;49390;51.380;0.098;2023-04-06T01:04:32;7.82;;;4.22;;
63259;SDS011;49390;51.380;0.098;2023-04-06T01:07:03;7.78;;;4.30;;
63259;SDS011;49390;51.380;0.098;2023-04-06T01:09:40;6.70;;;4.10;;
63259;SDS011;49390;51.380;0.098;2023-04-06T01:12:16;6.50;;;4.13;;
63259;SDS011;49390;51.380;0.098;2023-04-06T01:14:44;7.35;;;4.63;;
63259;SDS011;49390;51.380;0.098;2023-04-06T01:17:13;7.90;;;4.32;;
63259;SDS011;49390;51.380;0.098;2023-04-06T01:19:41;6.97;;;3.63;;
63259;SDS011;49390;51.380;0.098;2023-04-06T01:22:15;7.10;;;3.90;;
63259;SDS011;49390;51.380;0.098;2023-04-06T01:24:58;5.60;;;3.50;;
63259;SDS011;49390;51.380;0.098;2023-04-06T01:27:52;6.18;;;3.65;;
63259;SDS011;49390;51.380;0.098;2023-04-06T01:30:23;6.00;;;3.50;;
63259;SDS011;49390;51.380;0.098;2023-04-06T01:32:58;5.70;;;3.35;;
63259;SDS011;49390;51.380;0.098;2023-04-06T01:35:42;7.05;;;3.63;;
63259;SDS011;49390;51.380;0.098;2023-04-06T01:38:14;6.53;;;3.75;;
63259;SDS011;49390;51.380;0.098;2023-04-06T01:40:43;5.25;;;3.10;;
63259;SDS011;49390;51.380;0.098;2023-04-06T01:43:12;6.78;;;4.00;;
63259;SDS011;49390;51.380;0.098;2023-04-06T01:45:56;6.55;;;3.65;;
63259;SDS011;49390;51.380;0.098;2023-04-06T01:48:29;7.10;;;4.05;;
63259;SDS011;49390;51.380;0.098;2023-04-06T01:51:01;6.15;;;3.40;;
63259;SDS011;49390;51.380;0.098;2023-04-06T01:53:33;7.13;;;3.50;;
63259;SDS011;49390;51.380;0.098;2023-04-06T01:56:06;5.95;;;3.42;;
63259;SDS011;49390;51.380;0.098;2023-04-06T01:58:38;7.68;;;3.85;;
63259;SDS011;49390;51.380;0.098;2023-04-06T02:01:06;6.28;;;3.10;;
63259;SDS011;49390;51.380;0.098;2023-04-06T02:03:47;5.45;;;3.33;;
63259;SDS011;49390;51.380;0.098;2023-04-06T02:06:15;5.57;;;3.22;;
63259;SDS011;49390;51.380;0.098;2023-04-06T02:08:43;5.70;;;3.60;;
63259;SDS011;49390;51.380;0.098;2023-04-06T02:11:11;6.68;;;3.70;;
63259;SDS011;49390;51.380;0.098;2023-04-06T02:13:45;5.22;;;2.95;;
63259;SDS011;49390;51.380;0.098;2023-04-06T02:16:13;6.95;;;3.10;;
63259;SDS011;49390;51.380;0.098;2023-04-06T02:21:12;5.57;;;2.88;;
63259;SDS011;49390;51.380;0.098;2023-04-06T02:23:41;5.80;;;2.80;;
63259;SDS011;49390;51.380;0.098;2023-04-06T02:26:09;5.70;;;3.22;;
63259;SDS011;49390;51.380;0.098;2023-04-06T02:28:37;4.45;;;2.75;;
63259;SDS011;49390;51.380;0.098;2023-04-06T02:31:05;5.60;;;2.90;;
63259;SDS011;49390;51.380;0.098;2023-04-06T02:33:34;4.75;;;2.75;;
63259;SDS011;49390;51.380;0.098;2023-04-06T02:36:02;4.88;;;2.97;;
63259;SDS011;49390;51.380;0.098;2023-04-06T02:38:33;4.80;;;2.90;;
63259;SDS011;49390;51.380;0.098;2023-04-06T02:41:02;4.75;;;3.00;;
63259;SDS011;49390;51.380;0.098;2023-04-06T02:43:30;5.93;;;3.13;;
63259;SDS011;49390;51.380;0.098;2023-04-06T02:46:04;5.15;;;3.10;;
63259;SDS011;49390;51.380;0.098;2023-04-06T02:48:37;4.63;;;3.03;;
63259;SDS011;49390;51.380;0.098;2023-04-06T02:51:05;5.25;;;3.17;;
63259;SDS011;49390;51.380;0.098;2023-04-06T02:53:34;6.00;;;2.90;;
63259;SDS011;49390;51.380;0.098;2023-04-06T02:56:02;5.63;;;3.25;;
63259;SDS011;49390;51.380;0.098;2023-04-06T02:58:44;6.20;;;3.72;;
63259;SDS011;49390;51.380;0.098;2023-04-06T03:01:12;5.28;;;2.95;;
63259;SDS011;49390;51.380;0.098;2023-04-06T03:03:42;4.95;;;2.80;;
63259;SDS011;49390;51.380;0.098;2023-04-06T03:06:17;4.97;;;2.90;;
63259;SDS011;49390;51.380;0.098;2023-04-06T03:08:47;5.05;;;2.75;;
63259;SDS011;49390;51.380;0.098;2023-04-06T03:11:15;4.13;;;2.58;;
63259;SDS011;49390;51.380;0.098;2023-04-06T03:13:44;4.10;;;2.58;;
63259;SDS011;49390;51.380;0.098;2023-04-06T03:16:12;4.32;;;2.50;;
63259;SDS011;49390;51.380;0.098;2023-04-06T03:18:41;3.75;;;2.20;;
63259;SDS011;49390;51.380;0.098;2023-04-06T03:21:13;4.10;;;2.20;;
63259;SDS011;49390;51.380;0.098;2023-04-06T03:23:48;2.75;;;2.20;;
63259;SDS011;49390;51.380;0.098;2023-04-06T03:26:18;3.00;;;1.83;;
63259;SDS011;49390;51.380;0.098;2023-04-06T03:28:46;3.53;;;1.90;;
63259;SDS011;49390;51.380;0.098;2023-04-06T03:31:14;2.97;;;1.63;;
63259;SDS011;49390;51.380;0.098;2023-04-06T03:33:48;2.60;;;1.90;;
63259;SDS011;49390;51.380;0.098;2023-04-06T03:36:23;2.78;;;1.80;;
63259;SDS011;49390;51.380;0.098;2023-04-06T03:38:53;2.33;;;1.50;;
63259;SDS011;49390;51.380;0.098;2023-04-06T03:41:21;3.08;;;1.90;;
63259;SDS011;49390;51.380;0.098;2023-04-06T03:43:57;2.10;;;1.70;;
63259;SDS011;49390;51.380;0.098;2023-04-06T03:46:25;5.40;;;2.10;;
63259;SDS011;49390;51.380;0.098;2023-04-06T03:48:56;2.67;;;1.80;;
63259;SDS011;49390;51.380;0.098;2023-04-06T03:51:24;2.72;;;1.77;;
63259;SDS011;49390;51.380;0.098;2023-04-06T03:53:52;3.33;;;2.00;;
63259;SDS011;49390;51.380;0.098;2023-04-06T03:56:20;3.80;;;2.08;;
63259;SDS011;49390;51.380;0.098;2023-04-06T03:58:48;3.15;;;2.05;;
63259;SDS011;49390;51.380;0.098;2023-04-06T04:01:23;3.92;;;2.47;;
63259;SDS011;49390;51.380;0.098;2023-04-06T04:03:51;3.92;;;2.53;;
63259;SDS011;49390;51.380;0.098;2023-04-06T04:06:19;3.92;;;2.50;;
63259;SDS011;49390;51.380;0.098;2023-04-06T04:08:47;5.22;;;2.88;;
63259;SDS011;49390;51.380;0.098;2023-04-06T04:11:15;4.85;;;3.00;;
63259;SDS011;49390;51.380;0.098;2023-04-06T04:16:14;5.82;;;2.97;;
63259;SDS011;49390;51.380;0.098;2023-04-06T04:18:43;6.00;;;3.72;;
63259;SDS011;49390;51.380;0.098;2023-04-06T04:21:12;6.38;;;3.47;;
63259;SDS011;49390;51.380;0.098;2023-04-06T04:23:40;6.18;;;3.53;;
63259;SDS011;49390;51.380;0.098;2023-04-06T04:28:31;6.18;;;3.67;;
63259;SDS011;49390;51.380;0.098;2023-04-06T04:30:59;6.40;;;4.07;;
63259;SDS011;49390;51.380;0.098;2023-04-06T04:33:31;6.13;;;3.90;;
63259;SDS011;49390;51.380;0.098;2023-04-06T04:36:02;6.18;;;3.85;;
63259;SDS011;49390;51.380;0.098;2023-04-06T04:38:37;6.75;;;4.18;;
63259;SDS011;49390;51.380;0.098;2023-04-06T04:41:05;6.88;;;4.43;;
63259;SDS011;49390;51.380;0.098;2023-04-06T04:43:36;8.93;;;4.82;;
63259;SDS011;49390;51.380;0.098;2023-04-06T04:46:04;8.32;;;4.80;;
63259;SDS011;49390;51.380;0.098;2023-04-06T04:48:37;7.80;;;4.30;;
63259;SDS011;49390;51.380;0.098;2023-04-06T04:51:07;8.55;;;4.72;;
63259;SDS011;49390;51.380;0.098;2023-04-06T04:56:30;8.15;;;4.72;;
63259;SDS011;49390;51.380;0.098;2023-04-06T04:59:21;8.55;;;4.88;;
63259;SDS011;49390;51.380;0.098;2023-04-06T05:01:56;8.50;;;5.00;;
63259;SDS011;49390;51.380;0.098;2023-04-06T05:04:33;9.82;;;4.88;;
63259;SDS011;49390;51.380;0.098;2023-04-06T05:07:03;8.13;;;4.93;;
63259;SDS011;49390;51.380;0.098;2023-04-06T05:09:37;9.20;;;4.65;;
63259;SDS011;49390;51.380;0.098;2023-04-06T05:12:06;8.57;;;5.13;;
63259;SDS011;49390;51.380;0.098;2023-04-06T05:14:42;8.45;;;4.40;;
63259;SDS011;49390;51.380;0.098;2023-04-06T05:17:15;8.48;;;4.63;;
63259;SDS011;49390;51.380;0.098;2023-04-06T05:19:43;8.52;;;4.88;;
63259;SDS011;49390;51.380;0.098;2023-04-06T05:22:13;8.43;;;4.80;;
63259;SDS011;49390;51.380;0.098;2023-04-06T05:24:46;9.00;;;5.03;;
63259;SDS011;49390;51.380;0.098;2023-04-06T05:27:15;8.60;;;5.03;;
63259;SDS011;49390;51.380;0.098;2023-04-06T05:29:43;9.05;;;4.90;;
63259;SDS011;49390;51.380;0.098;2023-04-06T05:32:11;9.20;;;5.65;;
63259;SDS011;49390;51.380;0.098;2023-04-06T05:34:40;9.68;;;4.95;;
63259;SDS011;49390;51.380;0.098;2023-04-06T05:37:08;10.45;;;5.20;;
63259;SDS011;49390;51.380;0.098;2023-04-06T05:39:36;9.45;;;5.35;;
63259;SDS011;49390;51.380;0.098;2023-04-06T05:42:04;9.95;;;5.38;;
63259;SDS011;49390;51.380;0.098;2023-04-06T05:44:55;9.50;;;5.75;;
63259;SDS011;49390;51.380;0.098;2023-04-06T05:47:24;9.48;;;5.15;;
63259;SDS011;49390;51.380;0.098;2023-04-06T05:50:01;10.60;;;4.95;;
63259;SDS011;49390;51.380;0.098;2023-04-06T05:52:33;12.38;;;5.85;;
63259;SDS011;49390;51.380;0.098;2023-04-06T05:55:01;10.32;;;5.78;;
63259;SDS011;49390;51.380;0.098;2023-04-06T05:57:30;10.07;;;5.70;;
63259;SDS011;49390;51.380;0.098;2023-04-06T05:59:58;11.18;;;6.15;;
63259;SDS011;49390;51.380;0.098;2023-04-06T06:02:38;11.90;;;5.93;;
63259;SDS011;49390;51.380;0.098;2023-04-06T06:05:10;12.15;;;6.45;;
63259;SDS011;49390;51.380;0.098;2023-04-06T06:07:41;11.17;;;6.27;;
63259;SDS011;49390;51.380;0.098;2023-04-06T06:10:10;11.38;;;5.95;;
63259;SDS011;49390;51.380;0.098;2023-04-06T06:12:40;10.57;;;5.43;;
63259;SDS011;49390;51.380;0.098;2023-04-06T06:15:08;10.35;;;5.85;;
63259;SDS011;49390;51.380;0.098;2023-04-06T06:17:42;10.35;;;5.82;;
63259;SDS011;49390;51.380;0.098;2023-04-06T06:20:10;11.05;;;5.85;;
63259;SDS011;49390;51.380;0.098;2023-04-06T06:22:39;11.25;;;5.70;;
63259;SDS011;49390;51.380;0.098;2023-04-06T06:25:12;10.75;;;5.50;;
63259;SDS011;49390;51.380;0.098;2023-04-06T06:27:41;11.27;;;5.93;;
63259;SDS011;49390;51.380;0.098;2023-04-06T06:30:09;10.88;;;5.90;;
63259;SDS011;49390;51.380;0.098;2023-04-06T06:35:08;9.27;;;5.28;;
63259;SDS011;49390;51.380;0.098;2023-04-06T06:37:39;10.32;;;5.60;;
63259;SDS011;49390;51.380;0.098;2023-04-06T06:40:15;11.45;;;5.75;;
63259;SDS011;49390;51.380;0.098;2023-04-06T06:42:48;10.32;;;5.65;;
63259;SDS011;49390;51.380;0.098;2023-04-06T06:45:38;10.07;;;5.18;;
63259;SDS011;49390;51.380;0.098;2023-04-06T06:48:06;8.55;;;4.25;;
63259;SDS011;49390;51.380;0.098;2023-04-06T06:50:38;8.75;;;4.60;;
63259;SDS011;49390;51.380;0.098;2023-04-06T06:53:07;10.05;;;5.10;;
63259;SDS011;49390;51.380;0.098;2023-04-06T06:55:35;8.38;;;4.00;;
63259;SDS011;49390;51.380;0.098;2023-04-06T06:58:03;7.13;;;4.10;;
63259;SDS011;49390;51.380;0.098;2023-04-06T07:00:32;8.75;;;4.30;;
63259;SDS011;49390;51.380;0.098;2023-04-06T07:03:00;7.50;;;4.00;;
63259;SDS011;49390;51.380;0.098;2023-04-06T07:05:28;8.43;;;4.10;;
63259;SDS011;49390;51.380;0.098;2023-04-06T07:07:58;7.68;;;4.40;;
63259;SDS011;49390;51.380;0.098;2023-04-06T07:10:26;8.02;;;4.05;;
63259;SDS011;49390;51.380;0.098;2023-04-06T07:12:54;7.80;;;4.07;;
63259;SDS011;49390;51.380;0.098;2023-04-06T07:15:23;8.65;;;4.50;;
63259;SDS011;49390;51.380;0.098;2023-04-06T07:17:51;8.02;;;4.20;;
63259;SDS011;49390;51.380;0.098;2023-04-06T07:20:22;8.53;;;4.23;;
63259;SDS011;49390;51.380;0.098;2023-04-06T07:22:50;8.82;;;4.43;;
63259;SDS011;49390;51.380;0.098;2023-04-06T07:25:18;7.50;;;4.10;;
63259;SDS011;49390;51.380;0.098;2023-04-06T07:27:46;6.78;;;3.38;;
63259;SDS011;49390;51.380;0.098;2023-04-06T07:30:16;7.05;;;3.78;;
63259;SDS011;49390;51.380;0.098;2023-04-06T07:32:45;7.55;;;4.00;;
63259;SDS011;49390;51.380;0.098;2023-04-06T07:35:14;6.70;;;3.50;;
63259;SDS011;49390;51.380;0.098;2023-04-06T07:37:43;6.07;;;3.33;;
63259;SDS011;49390;51.380;0.098;2023-04-06T07:40:11;6.68;;;3.60;;
63259;SDS011;49390;51.380;0.098;2023-04-06T07:42:41;5.25;;;2.80;;
63259;SDS011;49390;51.380;0.098;2023-04-06T07:45:10;4.95;;;2.92;;
63259;SDS011;49390;51.380;0.098;2023-04-06T07:47:39;5.60;;;2.95;;
63259;SDS011;49390;51.380;0.098;2023-04-06T07:50:07;6.22;;;3.22;;
63259;SDS011;49390;51.380;0.098;2023-04-06T07:52:35;5.40;;;2.83;;
63259;SDS011;49390;51.380;0.098;2023-04-06T07:55:05;5.80;;;3.20;;
63259;SDS011;49390;51.380;0.098;2023-04-06T07:57:33;5.25;;;2.90;;
63259;SDS011;49390;51.380;0.098;2023-04-06T08:00:02;5.82;;;3.00;;
63259;SDS011;49390;51.380;0.098;2023-04-06T08:02:38;4.53;;;2.83;;
63259;SDS011;49390;51.380;0.098;2023-04-06T08:05:07;4.50;;;2.40;;
63259;SDS011;49390;51.380;0.098;2023-04-06T08:07:35;6.18;;;2.65;;
63259;SDS011;49390;51.380;0.098;2023-04-06T08:10:03;5.45;;;2.28;;
63259;SDS011;49390;51.380;0.098;2023-04-06T08:12:32;4.32;;;2.40;;
63259;SDS011;49390;51.380;0.098;2023-04-06T08:15:01;6.00;;;2.30;;
63259;SDS011;49390;51.380;0.098;2023-04-06T08:17:34;8.25;;;2.35;;
63259;SDS011;49390;51.380;0.098;2023-04-06T08:22:31;4.38;;;2.20;;
63259;SDS011;49390;51.380;0.098;2023-04-06T08:25:01;7.85;;;2.45;;
63259;SDS011;49390;51.380;0.098;2023-04-06T08:27:29;7.75;;;2.50;;
63259;SDS011;49390;51.380;0.098;2023-04-06T08:29:57;7.20;;;2.55;;
63259;SDS011;49390;51.380;0.098;2023-04-06T08:32:25;11.38;;;2.75;;
63259;SDS011;49390;51.380;0.098;2023-04-06T08:34:54;5.32;;;2.10;;
63259;SDS011;49390;51.380;0.098;2023-04-06T08:37:23;6.13;;;2.20;;
63259;SDS011;49390;51.380;0.098;2023-04-06T08:39:51;5.85;;;1.98;;
63259;SDS011;49390;51.380;0.098;2023-04-06T08:42:20;7.97;;;1.98;;
63259;SDS011;49390;51.380;0.098;2023-04-06T08:44:49;7.45;;;2.05;;
63259;SDS011;49390;51.380;0.098;2023-04-06T08:47:19;3.78;;;2.00;;
63259;SDS011;49390;51.380;0.098;2023-04-06T08:49:51;4.30;;;2.00;;
63259;SDS011;49390;51.380;0.098;2023-04-06T08:52:21;4.57;;;2.10;;
63259;SDS011;49390;51.380;0.098;2023-04-06T08:54:49;7.03;;;2.17;;
63259;SDS011;49390;51.380;0.098;2023-04-06T08:57:20;5.60;;;2.40;;
63259;SDS011;49390;51.380;0.098;2023-04-06T08:59:49;5.80;;;2.30;;
63259;SDS011;49390;51.380;0.098;2023-04-06T09:02:18;6.63;;;2.50;;
63259;SDS011;49390;51.380;0.098;2023-04-06T09:07:05;5.93;;;2.60;;
63259;SDS011;49390;51.380;0.098;2023-04-06T09:09:33;5.60;;;2.28;;
63259;SDS011;49390;51.380;0.098;2023-04-06T09:12:02;7.35;;;3.00;;
63259;SDS011;49390;51.380;0.098;2023-04-06T09:14:36;7.22;;;2.30;;
63259;SDS011;49390;51.380;0.098;2023-04-06T09:17:05;6.78;;;3.30;;
63259;SDS011;49390;51.380;0.098;2023-04-06T09:19:33;6.82;;;3.03;;
63259;SDS011;49390;51.380;0.098;2023-04-06T09:22:12;7.68;;;2.80;;
63259;SDS011;49390;51.380;0.098;2023-04-06T09:27:13;8.18;;;2.63;;
63259;SDS011;49390;51.380;0.098;2023-04-06T09:29:44;9.18;;;2.80;;
63259;SDS011;49390;51.380;0.098;2023-04-06T09:32:12;8.63;;;2.60;;
63259;SDS011;49390;51.380;0.098;2023-04-06T09:34:44;6.60;;;2.28;;
63259;SDS011;49390;51.380;0.098;2023-04-06T09:39:45;7.72;;;2.58;;
63259;SDS011;49390;51.380;0.098;2023-04-06T09:42:26;6.63;;;2.78;;
63259;SDS011;49390;51.380;0.098;2023-04-06T09:44:54;5.88;;;2.85;;
63259;SDS011;49390;51.380;0.098;2023-04-06T09:47:22;7.72;;;2.45;;
63259;SDS011;49390;51.380;0.098;2023-04-06T09:49:56;7.97;;;2.60;;
63259;SDS011;49390;51.380;0.098;2023-04-06T09:52:41;8.75;;;2.78;;
63259;SDS011;49390;51.380;0.098;2023-04-06T09:55:20;7.72;;;2.55;;
63259;SDS011;49390;51.380;0.098;2023-04-06T09:58:05;6.97;;;2.58;;
63259;SDS011;49390;51.380;0.098;2023-04-06T10:00:39;6.90;;;2.60;;
63259;SDS011;49390;51.380;0.098;2023-04-06T10:03:27;9.88;;;3.10;;
63259;SDS011;49390;51.380;0.098;2023-04-06T10:06:08;5.15;;;2.38;;
63259;SDS011;49390;51.380;0.098;2023-04-06T10:08:42;7.20;;;2.72;;
63259;SDS011;49390;51.380;0.098;2023-04-06T10:11:13;7.72;;;2.90;;
63259;SDS011;49390;51.380;0.098;2023-04-06T10:13:41;8.32;;;3.13;;
63259;SDS011;49390;51.380;0.098;2023-04-06T10:16:11;8.23;;;2.88;;
63259;SDS011;49390;51.380;0.098;2023-04-06T10:18:46;7.47;;;2.85;;
63259;SDS011;49390;51.380;0.098;2023-04-06T10:21:20;4.85;;;2.42;;
63259;SDS011;49390;51.380;0.098;2023-04-06T10:24:02;9.20;;;2.83;;
63259;SDS011;49390;51.380;0.098;2023-04-06T10:26:37;13.07;;;3.00;;
63259;SDS011;49390;51.380;0.098;2023-04-06T10:29:06;6.05;;;2.53;;
63259;SDS011;49390;51.380;0.098;2023-04-06T10:34:03;7.13;;;2.38;;
63259;SDS011;49390;51.380;0.098;2023-04-06T10:36:32;7.18;;;2.50;;
63259;SDS011;49390;51.380;0.098;2023-04-06T10:39:03;6.38;;;2.45;;
63259;SDS011;49390;51.380;0.098;2023-04-06T10:41:35;6.30;;;2.35;;
63259;SDS011;49390;51.380;0.098;2023-04-06T10:44:21;5.85;;;2.30;;
63259;SDS011;49390;51.380;0.098;2023-04-06T10:46:56;5.47;;;2.40;;
63259;SDS011;49390;51.380;0.098;2023-04-06T10:49:27;6.20;;;2.28;;
63259;SDS011;49390;51.380;0.098;2023-04-06T10:51:55;6.25;;;2.28;;
63259;SDS011;49390;51.380;0.098;2023-04-06T10:54:24;5.50;;;2.25;;
63259;SDS011;49390;51.380;0.098;2023-04-06T10:56:54;4.93;;;1.98;;
63259;SDS011;49390;51.380;0.098;2023-04-06T10:59:23;5.22;;;2.38;;
63259;SDS011;49390;51.380;0.098;2023-04-06T11:01:53;3.70;;;1.88;;
63259;SDS011;49390;51.380;0.098;2023-04-06T11:04:22;3.50;;;2.10;;
63259;SDS011;49390;51.380;0.098;2023-04-06T11:06:52;4.85;;;1.80;;
63259;SDS011;49390;51.380;0.098;2023-04-06T11:09:29;6.10;;;2.13;;
63259;SDS011;49390;51.380;0.098;2023-04-06T11:11:59;4.85;;;2.08;;
63259;SDS011;49390;51.380;0.098;2023-04-06T11:14:27;2.70;;;1.80;;
63259;SDS011;49390;51.380;0.098;2023-04-06T11:16:56;4.85;;;2.05;;
63259;SDS011;49390;51.380;0.098;2023-04-06T11:19:24;5.28;;;2.40;;
63259;SDS011;49390;51.380;0.098;2023-04-06T11:21:52;3.50;;;1.75;;
63259;SDS011;49390;51.380;0.098;2023-04-06T11:24:21;5.40;;;2.00;;
63259;SDS011;49390;51.380;0.098;2023-04-06T11:26:51;5.55;;;2.05;;
63259;SDS011;49390;51.380;0.098;2023-04-06T11:29:24;4.13;;;2.50;;
63259;SDS011;49390;51.380;0.098;2023-04-06T11:32:00;6.07;;;2.00;;
63259;SDS011;49390;51.380;0.098;2023-04-06T11:34:32;6.97;;;2.00;;
63259;SDS011;49390;51.380;0.098;2023-04-06T11:37:03;4.07;;;2.00;;
63259;SDS011;49390;51.380;0.098;2023-04-06T11:39:38;7.57;;;2.40;;
63259;SDS011;49390;51.380;0.098;2023-04-06T11:42:08;5.00;;;2.33;;
63259;SDS011;49390;51.380;0.098;2023-04-06T11:44:40;5.20;;;2.30;;
63259;SDS011;49390;51.380;0.098;2023-04-06T11:47:13;4.57;;;2.15;;
63259;SDS011;49390;51.380;0.098;2023-04-06T11:49:43;4.60;;;1.90;;
63259;SDS011;49390;51.380;0.098;2023-04-06T11:52:18;5.25;;;2.08;;
63259;SDS011;49390;51.380;0.098;2023-04-06T11:54:48;5.82;;;2.00;;
63259;SDS011;49390;51.380;0.098;2023-04-06T11:57:18;5.10;;;1.90;;
63259;SDS011;49390;51.380;0.098;2023-04-06T11:59:47;4.30;;;1.90;;
63259;SDS011;49390;51.380;0.098;2023-04-06T12:02:16;4.63;;;1.98;;
63259;SDS011;49390;51.380;0.098;2023-04-06T12:04:45;4.90;;;2.17;;
63259;SDS011;49390;51.380;0.098;2023-04-06T12:07:14;6.00;;;2.30;;
63259;SDS011;49390;51.380;0.098;2023-04-06T12:10:56;5.57;;;2.20;;
63259;SDS011;49390;51.380;0.098;2023-04-06T12:13:25;4.72;;;1.98;;
63259;SDS011;49390;51.380;0.098;2023-04-06T12:15:53;5.93;;;2.40;;
63259;SDS011;49390;51.380;0.098;2023-04-06T12:18:22;4.45;;;2.03;;
63259;SDS011;49390;51.380;0.098;2023-04-06T12:20:50;2.75;;;1.92;;
63259;SDS011;49390;51.380;0.098;2023-04-06T12:23:19;3.40;;;1.83;;
63259;SDS011;49390;51.380;0.098;2023-04-06T12:25:47;5.75;;;2.00;;
63259;SDS011;49390;51.380;0.098;2023-04-06T12:28:15;3.17;;;1.70;;
63259;SDS011;49390;51.380;0.098;2023-04-06T12:30:43;2.92;;;1.70;;
63259;SDS011;49390;51.380;0.098;2023-04-06T12:33:11;3.08;;;1.60;;
63259;SDS011;49390;51.380;0.098;2023-04-06T12:35:39;4.80;;;1.73;;
63259;SDS011;49390;51.380;0.098;2023-04-06T12:38:08;5.07;;;1.70;;
63259;SDS011;49390;51.380;0.098;2023-04-06T12:40:36;3.70;;;1.80;;
63259;SDS011;49390;51.380;0.098;2023-04-06T12:43:07;3.92;;;1.48;;
63259;SDS011;49390;51.380;0.098;2023-04-06T12:45:36;3.10;;;1.55;;
63259;SDS011;49390;51.380;0.098;2023-04-06T12:48:04;3.15;;;1.55;;
63259;SDS011;49390;51.380;0.098;2023-04-06T12:50:32;2.65;;;1.30;;
63259;SDS011;49390;51.380;0.098;2023-04-06T12:53:00;2.65;;;1.25;;
63259;SDS011;49390;51.380;0.098;2023-04-06T12:55:29;3.33;;;1.45;;
63259;SDS011;49390;51.380;0.098;2023-04-06T12:57:58;2.93;;;1.33;;
63259;SDS011;49390;51.380;0.098;2023-04-06T13:00:27;2.35;;;1.30;;
63259;SDS011;49390;51.380;0.098;2023-04-06T13:02:56;2.03;;;1.20;;
63259;SDS011;49390;51.380;0.098;2023-04-06T13:05:24;3.45;;;1.40;;
63259;SDS011;49390;51.380;0.098;2023-04-06T13:07:54;4.55;;;1.70;;
63259;SDS011;49390;51.380;0.098;2023-04-06T13:10:24;2.17;;;1.60;;
63259;SDS011;49390;51.380;0.098;2023-04-06T13:12:54;4.35;;;1.48;;
63259;SDS011;49390;51.380;0.098;2023-04-06T13:15:22;2.90;;;1.42;;
63259;SDS011;49390;51.380;0.098;2023-04-06T13:17:50;3.47;;;1.55;;
63259;SDS011;49390;51.380;0.098;2023-04-06T13:20:21;4.03;;;1.40;;
63259;SDS011;49390;51.380;0.098;2023-04-06T13:22:54;5.10;;;1.65;;
63259;SDS011;49390;51.380;0.098;2023-04-06T13:25:22;3.80;;;1.70;;
63259;SDS011;49390;51.380;0.098;2023-04-06T13:27:50;3.90;;;1.70;;
63259;SDS011;49390;51.380;0.098;2023-04-06T13:30:18;2.17;;;1.40;;
63259;SDS011;49390;51.380;0.098;2023-04-06T13:32:46;2.80;;;1.42;;
63259;SDS011;49390;51.380;0.098;2023-04-06T13:35:15;4.65;;;1.52;;
63259;SDS011;49390;51.380;0.098;2023-04-06T13:37:44;2.10;;;1.35;;
63259;SDS011;49390;51.380;0.098;2023-04-06T13:40:12;2.70;;;1.25;;
63259;SDS011;49390;51.380;0.098;2023-04-06T13:42:40;2.17;;;1.40;;
63259;SDS011;49390;51.380;0.098;2023-04-06T13:45:11;3.13;;;1.30;;
63259;SDS011;49390;51.380;0.098;2023-04-06T13:47:39;4.07;;;1.60;;
63259;SDS011;49390;51.380;0.098;2023-04-06T13:50:07;3.65;;;1.92;;
63259;SDS011;49390;51.380;0.098;2023-04-06T13:52:36;2.58;;;1.60;;
63259;SDS011;49390;51.380;0.098;2023-04-06T13:55:03;3.63;;;1.60;;
63259;SDS011;49390;51.380;0.098;2023-04-06T13:57:32;2.13;;;1.50;;
63259;SDS011;49390;51.380;0.098;2023-04-06T14:00:00;3.53;;;1.67;;
63259;SDS011;49390;51.380;0.098;2023-04-06T14:02:34;2.80;;;1.35;;
63259;SDS011;49390;51.380;0.098;2023-04-06T14:05:02;2.58;;;1.80;;
63259;SDS011;49390;51.380;0.098;2023-04-06T14:07:30;3.03;;;1.30;;
63259;SDS011;49390;51.380;0.098;2023-04-06T14:09:58;5.40;;;1.80;;
63259;SDS011;49390;51.380;0.098;2023-04-06T14:12:27;3.40;;;1.58;;
63259;SDS011;49390;51.380;0.098;2023-04-06T14:14:55;3.35;;;1.60;;
63259;SDS011;49390;51.380;0.098;2023-04-06T14:17:23;3.63;;;1.70;;
63259;SDS011;49390;51.380;0.098;2023-04-06T14:19:51;3.75;;;1.70;;
63259;SDS011;49390;51.380;0.098;2023-04-06T14:22:20;4.80;;;1.98;;
63259;SDS011;49390;51.380;0.098;2023-04-06T14:24:48;2.03;;;1.50;;
63259;SDS011;49390;51.380;0.098;2023-04-06T14:27:16;1.52;;;1.42;;
63259;SDS011;49390;51.380;0.098;2023-04-06T14:29:46;2.40;;;1.50;;
63259;SDS011;49390;51.380;0.098;2023-04-06T14:32:14;5.60;;;1.67;;
63259;SDS011;49390;51.380;0.098;2023-04-06T14:34:44;5.78;;;1.70;;
63259;SDS011;49390;51.380;0.098;2023-04-06T14:37:12;3.38;;;1.50;;
63259;SDS011;49390;51.380;0.098;2023-04-06T14:39:41;4.47;;;1.70;;
63259;SDS011;49390;51.380;0.098;2023-04-06T14:42:09;5.53;;;1.98;;
63259;SDS011;49390;51.380;0.098;2023-04-06T14:44:37;4.13;;;1.85;;
63259;SDS011;49390;51.380;0.098;2023-04-06T14:47:10;3.80;;;2.10;;
63259;SDS011;49390;51.380;0.098;2023-04-06T14:49:38;6.10;;;2.00;;
63259;SDS011;49390;51.380;0.098;2023-04-06T14:52:06;4.85;;;1.70;;
63259;SDS011;49390;51.380;0.098;2023-04-06T14:54:33;4.22;;;1.80;;
63259;SDS011;49390;51.380;0.098;2023-04-06T14:57:02;3.33;;;1.90;;
63259;SDS011;49390;51.380;0.098;2023-04-06T14:59:30;3.88;;;1.77;;
63259;SDS011;49390;51.380;0.098;2023-04-06T15:02:05;4.80;;;1.83;;
63259;SDS011;49390;51.380;0.098;2023-04-06T15:04:34;3.10;;;1.63;;
63259;SDS011;49390;51.380;0.098;2023-04-06T15:07:07;1.90;;;1.20;;
63259;SDS011;49390;51.380;0.098;2023-04-06T15:09:35;2.20;;;1.50;;
63259;SDS011;49390;51.380;0.098;2023-04-06T15:12:04;2.90;;;1.80;;
63259;SDS011;49390;51.380;0.098;2023-04-06T15:14:35;3.60;;;1.80;;
63259;SDS011;49390;51.380;0.098;2023-04-06T15:17:03;2.03;;;1.30;;
63259;SDS011;49390;51.380;0.098;2023-04-06T15:19:31;3.78;;;1.70;;
63259;SDS011;49390;51.380;0.098;2023-04-06T15:21:59;4.53;;;1.70;;
63259;SDS011;49390;51.380;0.098;2023-04-06T15:24:30;3.38;;;1.75;;
63259;SDS011;49390;51.380;0.098;2023-04-06T15:26:58;4.30;;;1.60;;
63259;SDS011;49390;51.380;0.098;2023-04-06T15:29:26;5.43;;;1.60;;
63259;SDS011;49390;51.380;0.098;2023-04-06T15:31:54;3.28;;;1.80;;